sensor_id;sensor_type;location;lat;lon;timestamp;temperature;humidity
15949;DHT22;14848;50.954;6.642;2023-03-30T00:00:39;12.50;99.90
15949;DHT22;14848;50.954;6.642;2023-03-30T00:03:08;12.50;99.90
15949;DHT22;14848;50.954;6.642;2023-03-30T00:05:34;12.50;99.90
15949;DHT22;14848;50.954;6.642;2023-03-30T00:07:59;12.40;99.90
15949;DHT22;14848;50.954;6.642;2023-03-30T00:10:27;12.50;99.90
15949;DHT22;14848;50.954;6.642;2023-03-30T00:12:54;12.60;99.90
15949;DHT22;14848;50.954;6.642;2023-03-30T00:15:21;12.30;99.90
15949;DHT22;14848;50.954;6.642;2023-03-30T00:17:47;12.50;99.90
15949;DHT22;14848;50.954;6.642;2023-03-30T00:20:13;12.50;99.90
15949;DHT22;14848;50.954;6.642;2023-03-30T00:22:39;12.50;99.90
15949;DHT22;14848;50.954;6.642;2023-03-30T00:25:06;12.50;99.90
15949;DHT22;14848;50.954;6.642;2023-03-30T00:27:33;12.60;99.90
15949;DHT22;14848;50.954;6.642;2023-03-30T00:29:59;12.70;99.90
15949;DHT22;14848;50.954;6.642;2023-03-30T00:32:25;12.70;99.90
15949;DHT22;14848;50.954;6.642;2023-03-30T00:34:50;12.60;99.90
15949;DHT22;14848;50.954;6.642;2023-03-30T00:37:16;12.70;99.90
15949;DHT22;14848;50.954;6.642;2023-03-30T00:39:42;12.70;99.90
15949;DHT22;14848;50.954;6.642;2023-03-30T00:42:12;12.80;99.90
15949;DHT22;14848;50.954;6.642;2023-03-30T00:47:22;13.00;99.90
15949;DHT22;14848;50.954;6.642;2023-03-30T00:49:47;13.10;99.90
15949;DHT22;14848;50.954;6.642;2023-03-30T00:52:13;13.10;99.90
15949;DHT22;14848;50.954;6.642;2023-03-30T00:54:44;13.00;99.90
15949;DHT22;14848;50.954;6.642;2023-03-30T00:57:10;12.80;99.90
15949;DHT22;14848;50.954;6.642;2023-03-30T00:59:35;12.90;99.90
15949;DHT22;14848;50.954;6.642;2023-03-30T01:02:01;12.90;99.90
15949;DHT22;14848;50.954;6.642;2023-03-30T01:04:26;12.80;99.90
15949;DHT22;14848;50.954;6.642;2023-03-30T01:06:52;12.90;99.90
15949;DHT22;14848;50.954;6.642;2023-03-30T01:09:19;13.00;99.90
15949;DHT22;14848;50.954;6.642;2023-03-30T01:11:45;13.10;99.90
15949;DHT22;14848;50.954;6.642;2023-03-30T01:14:11;13.20;99.90
15949;DHT22;14848;50.954;6.642;2023-03-30T01:37:16;14.50;99.90
15949;DHT22;14848;50.954;6.642;2023-03-30T01:44:59;14.40;99.90
15949;DHT22;14848;50.954;6.642;2023-03-30T01:47:35;14.30;99.90
15949;DHT22;14848;50.954;6.642;2023-03-30T01:50:04;14.40;99.90
15949;DHT22;14848;50.954;6.642;2023-03-30T01:52:36;13.50;99.90
15949;DHT22;14848;50.954;6.642;2023-03-30T01:55:09;14.30;99.90
15949;DHT22;14848;50.954;6.642;2023-03-30T01:57:49;14.30;99.90
15949;DHT22;14848;50.954;6.642;2023-03-30T02:00:16;14.40;99.90
15949;DHT22;14848;50.954;6.642;2023-03-30T02:02:46;14.40;99.90
15949;DHT22;14848;50.954;6.642;2023-03-30T02:05:13;14.40;99.90
15949;DHT22;14848;50.954;6.642;2023-03-30T02:07:43;14.50;99.90
15949;DHT22;14848;50.954;6.642;2023-03-30T02:10:09;14.50;99.90
15949;DHT22;14848;50.954;6.642;2023-03-30T02:12:36;14.50;99.90
15949;DHT22;14848;50.954;6.642;2023-03-30T02:15:03;14.40;99.90
15949;DHT22;14848;50.954;6.642;2023-03-30T02:17:31;14.40;99.90
15949;DHT22;14848;50.954;6.642;2023-03-30T02:19:58;14.40;99.90
15949;DHT22;14848;50.954;6.642;2023-03-30T02:22:24;14.50;99.90
15949;DHT22;14848;50.954;6.642;2023-03-30T02:24:52;14.40;99.90
15949;DHT22;14848;50.954;6.642;2023-03-30T02:27:18;14.40;99.90
15949;DHT22;14848;50.954;6.642;2023-03-30T02:29:44;14.30;99.90
15949;DHT22;14848;50.954;6.642;2023-03-30T02:32:14;14.30;99.90
15949;DHT22;14848;50.954;6.642;2023-03-30T02:34:46;14.20;99.90
15949;DHT22;14848;50.954;6.642;2023-03-30T02:42:35;14.30;99.90
15949;DHT22;14848;50.954;6.642;2023-03-30T02:50:04;14.30;99.90
15949;DHT22;14848;50.954;6.642;2023-03-30T02:52:38;14.40;99.90
15949;DHT22;14848;50.954;6.642;2023-03-30T02:57:53;14.00;99.90
15949;DHT22;14848;50.954;6.642;2023-03-30T03:00:27;14.10;99.90
15949;DHT22;14848;50.954;6.642;2023-03-30T03:02:55;14.10;99.90
15949;DHT22;14848;50.954;6.642;2023-03-30T03:05:22;14.00;99.90
15949;DHT22;14848;50.954;6.642;2023-03-30T03:07:49;14.00;99.90
15949;DHT22;14848;50.954;6.642;2023-03-30T03:10:15;14.00;99.90
15949;DHT22;14848;50.954;6.642;2023-03-30T03:12:41;13.90;99.90
15949;DHT22;14848;50.954;6.642;2023-03-30T03:15:07;14.00;99.90
15949;DHT22;14848;50.954;6.642;2023-03-30T03:17:33;14.10;99.90
15949;DHT22;14848;50.954;6.642;2023-03-30T03:20:02;14.00;99.90
15949;DHT22;14848;50.954;6.642;2023-03-30T03:22:29;14.10;99.90
15949;DHT22;14848;50.954;6.642;2023-03-30T03:24:54;13.80;99.90
15949;DHT22;14848;50.954;6.642;2023-03-30T03:27:20;13.70;99.90
15949;DHT22;14848;50.954;6.642;2023-03-30T03:29:45;13.70;99.90
15949;DHT22;14848;50.954;6.642;2023-03-30T03:32:12;13.70;99.90
15949;DHT22;14848;50.954;6.642;2023-03-30T03:34:37;13.60;99.90
15949;DHT22;14848;50.954;6.642;2023-03-30T03:37:04;13.50;99.90
15949;DHT22;14848;50.954;6.642;2023-03-30T03:39:30;13.30;99.90
15949;DHT22;14848;50.954;6.642;2023-03-30T03:41:56;13.40;99.90
15949;DHT22;14848;50.954;6.642;2023-03-30T03:44:21;13.40;99.90
15949;DHT22;14848;50.954;6.642;2023-03-30T03:46:47;13.40;99.90
15949;DHT22;14848;50.954;6.642;2023-03-30T03:49:12;13.20;99.90
15949;DHT22;14848;50.954;6.642;2023-03-30T03:51:38;13.20;99.90
15949;DHT22;14848;50.954;6.642;2023-03-30T03:54:04;13.00;99.90
15949;DHT22;14848;50.954;6.642;2023-03-30T03:56:29;13.40;99.90
15949;DHT22;14848;50.954;6.642;2023-03-30T03:58:55;13.10;99.90
15949;DHT22;14848;50.954;6.642;2023-03-30T04:01:21;13.10;99.90
15949;DHT22;14848;50.954;6.642;2023-03-30T04:03:46;13.20;99.90
15949;DHT22;14848;50.954;6.642;2023-03-30T04:06:12;13.20;99.90
15949;DHT22;14848;50.954;6.642;2023-03-30T04:08:37;13.30;99.90
15949;DHT22;14848;50.954;6.642;2023-03-30T04:11:04;13.50;99.90
15949;DHT22;14848;50.954;6.642;2023-03-30T04:13:34;13.50;99.90
15949;DHT22;14848;50.954;6.642;2023-03-30T04:16:00;13.50;99.90
15949;DHT22;14848;50.954;6.642;2023-03-30T04:18:26;13.50;99.90
15949;DHT22;14848;50.954;6.642;2023-03-30T04:20:58;13.60;99.90
15949;DHT22;14848;50.954;6.642;2023-03-30T04:23:27;13.50;99.90
15949;DHT22;14848;50.954;6.642;2023-03-30T04:26:05;13.40;99.90
15949;DHT22;14848;50.954;6.642;2023-03-30T04:28:32;13.40;99.90
15949;DHT22;14848;50.954;6.642;2023-03-30T04:30:58;13.40;99.90
15949;DHT22;14848;50.954;6.642;2023-03-30T04:33:24;13.40;99.90
15949;DHT22;14848;50.954;6.642;2023-03-30T04:35:50;13.60;99.90
15949;DHT22;14848;50.954;6.642;2023-03-30T04:38:15;13.70;99.90
15949;DHT22;14848;50.954;6.642;2023-03-30T04:40:49;13.70;99.90
15949;DHT22;14848;50.954;6.642;2023-03-30T04:43:16;13.80;99.90
15949;DHT22;14848;50.954;6.642;2023-03-30T04:45:48;13.60;99.90
15949;DHT22;14848;50.954;6.642;2023-03-30T04:48:13;14.00;99.90
15949;DHT22;14848;50.954;6.642;2023-03-30T04:50:39;14.00;99.90
15949;DHT22;14848;50.954;6.642;2023-03-30T04:53:05;14.00;99.90
15949;DHT22;14848;50.954;6.642;2023-03-30T04:55:31;14.00;99.90
15949;DHT22;14848;50.954;6.642;2023-03-30T04:57:56;13.90;99.90
15949;DHT22;14848;50.954;6.642;2023-03-30T05:00:22;13.80;99.90
15949;DHT22;14848;50.954;6.642;2023-03-30T05:02:47;13.80;99.90
15949;DHT22;14848;50.954;6.642;2023-03-30T05:05:13;13.80;99.90
15949;DHT22;14848;50.954;6.642;2023-03-30T05:07:38;13.80;99.90
15949;DHT22;14848;50.954;6.642;2023-03-30T05:10:04;13.70;99.90
15949;DHT22;14848;50.954;6.642;2023-03-30T05:12:29;13.70;99.90
15949;DHT22;14848;50.954;6.642;2023-03-30T05:14:55;13.70;99.90
15949;DHT22;14848;50.954;6.642;2023-03-30T05:17:20;13.80;99.90
15949;DHT22;14848;50.954;6.642;2023-03-30T05:19:46;13.70;99.90
15949;DHT22;14848;50.954;6.642;2023-03-30T05:22:12;13.90;99.90
15949;DHT22;14848;50.954;6.642;2023-03-30T05:24:37;14.20;99.90
15949;DHT22;14848;50.954;6.642;2023-03-30T05:27:03;14.10;99.90
15949;DHT22;14848;50.954;6.642;2023-03-30T05:29:29;14.10;99.90
15949;DHT22;14848;50.954;6.642;2023-03-30T05:31:54;14.10;99.90
15949;DHT22;14848;50.954;6.642;2023-03-30T05:34:20;14.20;99.90
15949;DHT22;14848;50.954;6.642;2023-03-30T05:36:45;14.20;99.90
15949;DHT22;14848;50.954;6.642;2023-03-30T05:39:12;14.10;99.90
15949;DHT22;14848;50.954;6.642;2023-03-30T05:41:37;14.20;99.90
15949;DHT22;14848;50.954;6.642;2023-03-30T05:44:03;14.20;99.90
15949;DHT22;14848;50.954;6.642;2023-03-30T05:46:29;14.30;99.90
15949;DHT22;14848;50.954;6.642;2023-03-30T05:48:55;14.30;99.90
15949;DHT22;14848;50.954;6.642;2023-03-30T05:51:20;14.40;99.90
15949;DHT22;14848;50.954;6.642;2023-03-30T05:53:46;13.50;99.90
15949;DHT22;14848;50.954;6.642;2023-03-30T05:56:11;14.40;99.90
15949;DHT22;14848;50.954;6.642;2023-03-30T05:58:37;14.40;99.90
15949;DHT22;14848;50.954;6.642;2023-03-30T06:01:02;14.60;99.90
15949;DHT22;14848;50.954;6.642;2023-03-30T06:03:30;14.60;99.90
15949;DHT22;14848;50.954;6.642;2023-03-30T06:05:56;14.60;99.90
15949;DHT22;14848;50.954;6.642;2023-03-30T06:08:21;14.60;99.90
15949;DHT22;14848;50.954;6.642;2023-03-30T06:10:50;14.60;99.90
15949;DHT22;14848;50.954;6.642;2023-03-30T06:13:16;14.70;99.90
15949;DHT22;14848;50.954;6.642;2023-03-30T06:15:43;14.80;99.90
15949;DHT22;14848;50.954;6.642;2023-03-30T06:18:09;14.60;99.90
15949;DHT22;14848;50.954;6.642;2023-03-30T06:20:34;14.50;99.90
15949;DHT22;14848;50.954;6.642;2023-03-30T06:23:00;14.40;99.90
15949;DHT22;14848;50.954;6.642;2023-03-30T06:25:25;14.60;99.90
15949;DHT22;14848;50.954;6.642;2023-03-30T06:27:51;14.50;99.90
15949;DHT22;14848;50.954;6.642;2023-03-30T06:30:17;14.50;99.90
15949;DHT22;14848;50.954;6.642;2023-03-30T06:32:42;14.50;99.90
15949;DHT22;14848;50.954;6.642;2023-03-30T06:35:08;14.60;99.90
15949;DHT22;14848;50.954;6.642;2023-03-30T06:37:34;14.70;99.90
15949;DHT22;14848;50.954;6.642;2023-03-30T06:40:03;14.90;99.90
15949;DHT22;14848;50.954;6.642;2023-03-30T06:42:41;14.90;99.90
15949;DHT22;14848;50.954;6.642;2023-03-30T06:45:08;14.90;99.90
15949;DHT22;14848;50.954;6.642;2023-03-30T06:47:35;14.90;99.90
15949;DHT22;14848;50.954;6.642;2023-03-30T06:50:00;14.80;99.90
15949;DHT22;14848;50.954;6.642;2023-03-30T06:52:26;15.00;99.90
15949;DHT22;14848;50.954;6.642;2023-03-30T06:54:52;15.10;99.90
15949;DHT22;14848;50.954;6.642;2023-03-30T06:57:17;15.10;99.90
15949;DHT22;14848;50.954;6.642;2023-03-30T06:59:43;15.30;99.90
15949;DHT22;14848;50.954;6.642;2023-03-30T07:02:12;15.40;99.90
15949;DHT22;14848;50.954;6.642;2023-03-30T07:04:38;15.30;99.90
15949;DHT22;14848;50.954;6.642;2023-03-30T07:07:04;15.30;99.90
15949;DHT22;14848;50.954;6.642;2023-03-30T07:09:29;15.30;99.90
15949;DHT22;14848;50.954;6.642;2023-03-30T07:11:55;15.30;99.90
15949;DHT22;14848;50.954;6.642;2023-03-30T07:14:21;15.20;99.90
15949;DHT22;14848;50.954;6.642;2023-03-30T07:16:47;15.40;99.90
15949;DHT22;14848;50.954;6.642;2023-03-30T07:19:13;15.50;99.90
15949;DHT22;14848;50.954;6.642;2023-03-30T07:21:38;15.50;99.90
15949;DHT22;14848;50.954;6.642;2023-03-30T07:24:04;15.50;99.90
15949;DHT22;14848;50.954;6.642;2023-03-30T08:39:38;15.50;99.90
15949;DHT22;14848;50.954;6.642;2023-03-30T09:13:44;15.70;99.90
15949;DHT22;14848;50.954;6.642;2023-03-30T09:18:55;14.80;99.90
15949;DHT22;14848;50.954;6.642;2023-03-30T09:21:22;14.50;99.90
15949;DHT22;14848;50.954;6.642;2023-03-30T09:23:49;13.50;99.90
15949;DHT22;14848;50.954;6.642;2023-03-30T09:48:47;11.00;99.90
15949;DHT22;14848;50.954;6.642;2023-03-30T10:06:05;10.80;99.90
15949;DHT22;14848;50.954;6.642;2023-03-30T10:30:27;13.30;99.90
15949;DHT22;14848;50.954;6.642;2023-03-30T10:32:57;13.00;99.90
15949;DHT22;14848;50.954;6.642;2023-03-30T11:09:46;13.90;99.90
15949;DHT22;14848;50.954;6.642;2023-03-30T11:19:41;13.90;99.90
15949;DHT22;14848;50.954;6.642;2023-03-30T11:27:02;14.00;99.90
15949;DHT22;14848;50.954;6.642;2023-03-30T11:37:24;15.60;99.90
15949;DHT22;14848;50.954;6.642;2023-03-30T11:40:01;15.20;99.90
15949;DHT22;14848;50.954;6.642;2023-03-30T11:42:34;15.30;99.90
15949;DHT22;14848;50.954;6.642;2023-03-30T11:45:02;14.80;99.90
15949;DHT22;14848;50.954;6.642;2023-03-30T11:52:57;15.40;99.90
15949;DHT22;14848;50.954;6.642;2023-03-30T11:58:12;15.70;99.90
15949;DHT22;14848;50.954;6.642;2023-03-30T12:00:48;15.70;99.90
15949;DHT22;14848;50.954;6.642;2023-03-30T12:08:47;15.80;99.90
15949;DHT22;14848;50.954;6.642;2023-03-30T12:11:29;15.90;99.90
15949;DHT22;14848;50.954;6.642;2023-03-30T12:13:57;16.00;99.90
15949;DHT22;14848;50.954;6.642;2023-03-30T12:22:12;15.30;99.90
15949;DHT22;14848;50.954;6.642;2023-03-30T12:24:57;15.20;99.90
15949;DHT22;14848;50.954;6.642;2023-03-30T12:27:27;14.80;99.90
15949;DHT22;14848;50.954;6.642;2023-03-30T12:29:53;14.50;99.90
15949;DHT22;14848;50.954;6.642;2023-03-30T12:32:35;14.40;99.90
15949;DHT22;14848;50.954;6.642;2023-03-30T12:38:05;14.30;99.90
15949;DHT22;14848;50.954;6.642;2023-03-30T12:40:31;14.50;99.90
15949;DHT22;14848;50.954;6.642;2023-03-30T12:43:36;14.60;99.90
15949;DHT22;14848;50.954;6.642;2023-03-30T12:46:27;14.40;99.90
15949;DHT22;14848;50.954;6.642;2023-03-30T12:51:34;13.90;99.90
15949;DHT22;14848;50.954;6.642;2023-03-30T12:57:15;13.10;99.90
15949;DHT22;14848;50.954;6.642;2023-03-30T13:05:38;11.80;99.90
15949;DHT22;14848;50.954;6.642;2023-03-30T13:08:20;11.70;99.90
15949;DHT22;14848;50.954;6.642;2023-03-30T13:10:46;11.80;99.90
15949;DHT22;14848;50.954;6.642;2023-03-30T13:13:21;11.80;99.90
15949;DHT22;14848;50.954;6.642;2023-03-30T13:15:52;11.90;99.90
15949;DHT22;14848;50.954;6.642;2023-03-30T13:18:24;11.80;99.90
15949;DHT22;14848;50.954;6.642;2023-03-30T13:25:50;11.80;99.90
15949;DHT22;14848;50.954;6.642;2023-03-30T13:31:27;11.90;99.90
15949;DHT22;14848;50.954;6.642;2023-03-30T13:34:14;11.90;99.90
15949;DHT22;14848;50.954;6.642;2023-03-30T13:39:57;12.20;99.90
15949;DHT22;14848;50.954;6.642;2023-03-30T13:46:20;12.60;99.90
15949;DHT22;14848;50.954;6.642;2023-03-30T13:51:23;12.80;99.90
15949;DHT22;14848;50.954;6.642;2023-03-30T13:54:02;13.00;99.90
15949;DHT22;14848;50.954;6.642;2023-03-30T13:56:32;13.10;99.90
15949;DHT22;14848;50.954;6.642;2023-03-30T13:59:12;13.20;99.90
15949;DHT22;14848;50.954;6.642;2023-03-30T14:01:39;13.30;99.90
15949;DHT22;14848;50.954;6.642;2023-03-30T14:04:10;13.40;99.90
15949;DHT22;14848;50.954;6.642;2023-03-30T14:06:42;13.50;99.90
15949;DHT22;14848;50.954;6.642;2023-03-30T14:09:12;13.60;99.90
15949;DHT22;14848;50.954;6.642;2023-03-30T14:11:42;13.80;99.90
15949;DHT22;14848;50.954;6.642;2023-03-30T14:14:23;13.90;99.90
15949;DHT22;14848;50.954;6.642;2023-03-30T14:16:50;14.00;99.90
15949;DHT22;14848;50.954;6.642;2023-03-30T14:19:24;14.10;99.90
15949;DHT22;14848;50.954;6.642;2023-03-30T14:21:54;14.40;99.90
15949;DHT22;14848;50.954;6.642;2023-03-30T14:24:32;14.60;99.90
15949;DHT22;14848;50.954;6.642;2023-03-30T14:27:25;14.80;99.90
15949;DHT22;14848;50.954;6.642;2023-03-30T14:29:56;14.90;99.90
15949;DHT22;14848;50.954;6.642;2023-03-30T14:32:22;15.20;99.90
15949;DHT22;14848;50.954;6.642;2023-03-30T14:34:50;15.40;99.90
15949;DHT22;14848;50.954;6.642;2023-03-30T14:37:17;15.50;99.90
15949;DHT22;14848;50.954;6.642;2023-03-30T14:39:51;15.50;99.90
15949;DHT22;14848;50.954;6.642;2023-03-30T14:42:24;17.80;99.90
15949;DHT22;14848;50.954;6.642;2023-03-30T14:44:53;15.40;99.90
15949;DHT22;14848;50.954;6.642;2023-03-30T14:47:24;15.50;99.90
15949;DHT22;14848;50.954;6.642;2023-03-30T14:49:53;15.30;99.90
15949;DHT22;14848;50.954;6.642;2023-03-30T14:52:26;15.40;99.90
15949;DHT22;14848;50.954;6.642;2023-03-30T14:54:55;15.40;99.90
15949;DHT22;14848;50.954;6.642;2023-03-30T14:57:23;15.30;99.90
15949;DHT22;14848;50.954;6.642;2023-03-30T14:59:56;15.40;99.90
15949;DHT22;14848;50.954;6.642;2023-03-30T15:02:26;15.40;99.90
15949;DHT22;14848;50.954;6.642;2023-03-30T15:04:53;15.50;99.90
15949;DHT22;14848;50.954;6.642;2023-03-30T15:07:21;15.60;99.90
15949;DHT22;14848;50.954;6.642;2023-03-30T15:09:53;15.50;99.90
15949;DHT22;14848;50.954;6.642;2023-03-30T15:14:48;15.30;99.90
15949;DHT22;14848;50.954;6.642;2023-03-30T15:17:19;15.40;99.90
15949;DHT22;14848;50.954;6.642;2023-03-30T15:19:48;15.50;99.90
15949;DHT22;14848;50.954;6.642;2023-03-30T15:24:44;15.90;99.90
15949;DHT22;14848;50.954;6.642;2023-03-30T15:27:13;16.20;99.90
15949;DHT22;14848;50.954;6.642;2023-03-30T15:29:40;16.00;99.90
15949;DHT22;14848;50.954;6.642;2023-03-30T15:32:15;16.10;99.90
15949;DHT22;14848;50.954;6.642;2023-03-30T15:37:26;16.00;99.90
15949;DHT22;14848;50.954;6.642;2023-03-30T15:45:11;15.90;99.90
15949;DHT22;14848;50.954;6.642;2023-03-30T15:47:37;15.90;99.90
15949;DHT22;14848;50.954;6.642;2023-03-30T15:50:04;16.00;99.90
15949;DHT22;14848;50.954;6.642;2023-03-30T15:55:04;16.00;99.90
15949;DHT22;14848;50.954;6.642;2023-03-30T15:57:32;16.00;99.90
15949;DHT22;14848;50.954;6.642;2023-03-30T16:00:05;16.10;99.90
15949;DHT22;14848;50.954;6.642;2023-03-30T16:02:39;16.20;99.90
15949;DHT22;14848;50.954;6.642;2023-03-30T16:05:10;16.40;99.90
15949;DHT22;14848;50.954;6.642;2023-03-30T16:07:39;16.50;99.90
15949;DHT22;14848;50.954;6.642;2023-03-30T16:10:17;16.70;99.90
15949;DHT22;14848;50.954;6.642;2023-03-30T16:12:46;16.60;99.90
15949;DHT22;14848;50.954;6.642;2023-03-30T16:15:14;16.40;99.90
15949;DHT22;14848;50.954;6.642;2023-03-30T16:17:40;16.30;99.90
15949;DHT22;14848;50.954;6.642;2023-03-30T16:20:20;16.20;99.90
15949;DHT22;14848;50.954;6.642;2023-03-30T16:22:47;16.30;99.90
15949;DHT22;14848;50.954;6.642;2023-03-30T16:25:15;16.40;99.90
15949;DHT22;14848;50.954;6.642;2023-03-30T16:27:41;16.50;99.90
15949;DHT22;14848;50.954;6.642;2023-03-30T16:30:32;16.50;99.90
15949;DHT22;14848;50.954;6.642;2023-03-30T16:33:01;16.30;99.90
15949;DHT22;14848;50.954;6.642;2023-03-30T16:35:27;16.10;99.90
15949;DHT22;14848;50.954;6.642;2023-03-30T16:37:53;15.90;99.90
15949;DHT22;14848;50.954;6.642;2023-03-30T16:40:40;15.80;99.90
15949;DHT22;14848;50.954;6.642;2023-03-30T16:43:06;15.50;99.90
15949;DHT22;14848;50.954;6.642;2023-03-30T16:45:32;15.50;99.90
15949;DHT22;14848;50.954;6.642;2023-03-30T16:47:58;15.40;99.90
15949;DHT22;14848;50.954;6.642;2023-03-30T16:50:36;15.40;99.90
15949;DHT22;14848;50.954;6.642;2023-03-30T16:53:03;15.40;99.90
15949;DHT22;14848;50.954;6.642;2023-03-30T16:55:29;15.20;99.90
15949;DHT22;14848;50.954;6.642;2023-03-30T16:57:56;15.30;99.90
15949;DHT22;14848;50.954;6.642;2023-03-30T17:00:25;15.20;99.90
15949;DHT22;14848;50.954;6.642;2023-03-30T17:02:51;15.20;99.90
15949;DHT22;14848;50.954;6.642;2023-03-30T17:05:16;15.20;99.90
15949;DHT22;14848;50.954;6.642;2023-03-30T17:07:42;15.20;99.90
15949;DHT22;14848;50.954;6.642;2023-03-30T17:10:22;15.20;99.90
15949;DHT22;14848;50.954;6.642;2023-03-30T17:12:49;15.20;99.90
15949;DHT22;14848;50.954;6.642;2023-03-30T17:15:14;15.20;99.90
15949;DHT22;14848;50.954;6.642;2023-03-30T17:17:40;15.20;99.90
15949;DHT22;14848;50.954;6.642;2023-03-30T17:20:16;15.20;99.90
15949;DHT22;14848;50.954;6.642;2023-03-30T17:22:42;15.10;99.90
15949;DHT22;14848;50.954;6.642;2023-03-30T17:25:08;15.10;99.90
15949;DHT22;14848;50.954;6.642;2023-03-30T17:27:34;15.00;99.90
15949;DHT22;14848;50.954;6.642;2023-03-30T18:01:40;13.90;99.90
15949;DHT22;14848;50.954;6.642;2023-03-30T18:04:05;13.80;99.90
15949;DHT22;14848;50.954;6.642;2023-03-30T18:06:31;13.80;99.90
15949;DHT22;14848;50.954;6.642;2023-03-30T18:08:56;13.80;99.90
15949;DHT22;14848;50.954;6.642;2023-03-30T18:11:22;13.70;99.90
15949;DHT22;14848;50.954;6.642;2023-03-30T18:13:47;13.70;99.90
15949;DHT22;14848;50.954;6.642;2023-03-30T18:16:13;13.60;99.90
15949;DHT22;14848;50.954;6.642;2023-03-30T18:18:42;13.60;99.90
15949;DHT22;14848;50.954;6.642;2023-03-30T18:21:07;13.50;99.90
15949;DHT22;14848;50.954;6.642;2023-03-30T18:23:34;13.40;99.90
15949;DHT22;14848;50.954;6.642;2023-03-30T18:26:00;13.40;99.90
15949;DHT22;14848;50.954;6.642;2023-03-30T18:28:26;13.30;99.90
15949;DHT22;14848;50.954;6.642;2023-03-30T18:30:52;13.20;99.90
15949;DHT22;14848;50.954;6.642;2023-03-30T18:33:19;13.20;99.90
15949;DHT22;14848;50.954;6.642;2023-03-30T18:35:46;13.20;99.90
15949;DHT22;14848;50.954;6.642;2023-03-30T18:38:12;13.10;99.90
15949;DHT22;14848;50.954;6.642;2023-03-30T18:40:39;13.00;99.90
15949;DHT22;14848;50.954;6.642;2023-03-30T18:43:06;13.00;99.90
15949;DHT22;14848;50.954;6.642;2023-03-30T18:45:32;12.90;99.90
15949;DHT22;14848;50.954;6.642;2023-03-30T18:47:59;12.90;99.90
15949;DHT22;14848;50.954;6.642;2023-03-30T18:50:29;12.80;99.90
15949;DHT22;14848;50.954;6.642;2023-03-30T18:52:56;12.80;99.90
15949;DHT22;14848;50.954;6.642;2023-03-30T18:55:22;12.80;99.90
15949;DHT22;14848;50.954;6.642;2023-03-30T18:57:48;12.80;99.90
15949;DHT22;14848;50.954;6.642;2023-03-30T19:00:15;12.70;99.90
15949;DHT22;14848;50.954;6.642;2023-03-30T19:02:43;12.70;99.90
15949;DHT22;14848;50.954;6.642;2023-03-30T19:05:09;12.70;99.90
15949;DHT22;14848;50.954;6.642;2023-03-30T19:07:34;12.60;99.90
15949;DHT22;14848;50.954;6.642;2023-03-30T19:10:00;12.60;99.90
15949;DHT22;14848;50.954;6.642;2023-03-30T19:12:25;12.60;99.90
15949;DHT22;14848;50.954;6.642;2023-03-30T19:14:51;12.60;99.90
15949;DHT22;14848;50.954;6.642;2023-03-30T19:17:17;12.60;99.90
15949;DHT22;14848;50.954;6.642;2023-03-30T19:19:42;12.50;99.90
15949;DHT22;14848;50.954;6.642;2023-03-30T19:22:08;12.60;99.90
15949;DHT22;14848;50.954;6.642;2023-03-30T19:24:34;12.60;99.90
15949;DHT22;14848;50.954;6.642;2023-03-30T19:27:00;12.60;99.90
15949;DHT22;14848;50.954;6.642;2023-03-30T19:29:26;12.60;99.90
15949;DHT22;14848;50.954;6.642;2023-03-30T19:31:51;12.60;99.90
15949;DHT22;14848;50.954;6.642;2023-03-30T19:34:19;12.60;99.90
15949;DHT22;14848;50.954;6.642;2023-03-30T19:36:44;12.60;99.90
15949;DHT22;14848;50.954;6.642;2023-03-30T19:39:10;12.60;99.90
15949;DHT22;14848;50.954;6.642;2023-03-30T19:41:35;12.50;99.90
15949;DHT22;14848;50.954;6.642;2023-03-30T19:44:01;12.50;99.90
15949;DHT22;14848;50.954;6.642;2023-03-30T19:46:27;12.50;99.90
15949;DHT22;14848;50.954;6.642;2023-03-30T19:48:52;12.40;99.90
15949;DHT22;14848;50.954;6.642;2023-03-30T19:51:18;13.50;99.90
15949;DHT22;14848;50.954;6.642;2023-03-30T19:53:43;12.40;99.90
15949;DHT22;14848;50.954;6.642;2023-03-30T19:56:09;12.30;99.90
15949;DHT22;14848;50.954;6.642;2023-03-30T19:58:35;12.20;99.90
15949;DHT22;14848;50.954;6.642;2023-03-30T20:01:05;12.10;99.90
15949;DHT22;14848;50.954;6.642;2023-03-30T20:03:31;12.10;99.90
15949;DHT22;14848;50.954;6.642;2023-03-30T20:05:56;12.00;99.90
15949;DHT22;14848;50.954;6.642;2023-03-30T20:08:22;12.00;99.90
15949;DHT22;14848;50.954;6.642;2023-03-30T20:10:48;12.00;99.90
15949;DHT22;14848;50.954;6.642;2023-03-30T20:13:14;11.90;99.90
15949;DHT22;14848;50.954;6.642;2023-03-30T20:15:41;11.80;99.90
15949;DHT22;14848;50.954;6.642;2023-03-30T20:18:06;11.80;99.90
15949;DHT22;14848;50.954;6.642;2023-03-30T20:20:32;11.80;99.90
15949;DHT22;14848;50.954;6.642;2023-03-30T20:22:59;11.80;99.90
15949;DHT22;14848;50.954;6.642;2023-03-30T20:25:25;11.80;99.90
15949;DHT22;14848;50.954;6.642;2023-03-30T20:27:51;11.80;99.90
15949;DHT22;14848;50.954;6.642;2023-03-30T20:30:16;11.80;99.90
15949;DHT22;14848;50.954;6.642;2023-03-30T20:32:43;11.80;99.90
15949;DHT22;14848;50.954;6.642;2023-03-30T20:35:08;11.80;99.90
15949;DHT22;14848;50.954;6.642;2023-03-30T20:37:34;11.70;99.90
15949;DHT22;14848;50.954;6.642;2023-03-30T20:40:00;11.70;99.90
15949;DHT22;14848;50.954;6.642;2023-03-30T20:42:29;11.70;99.90
15949;DHT22;14848;50.954;6.642;2023-03-30T20:44:54;11.70;99.90
15949;DHT22;14848;50.954;6.642;2023-03-30T20:47:22;11.70;99.90
15949;DHT22;14848;50.954;6.642;2023-03-30T20:49:48;11.40;99.90
15949;DHT22;14848;50.954;6.642;2023-03-30T20:52:13;11.60;99.90
15949;DHT22;14848;50.954;6.642;2023-03-30T20:54:39;13.00;99.90
15949;DHT22;14848;50.954;6.642;2023-03-30T20:57:09;11.50;99.90
15949;DHT22;14848;50.954;6.642;2023-03-30T20:59:35;11.50;99.90
15949;DHT22;14848;50.954;6.642;2023-03-30T21:02:01;11.50;99.90
15949;DHT22;14848;50.954;6.642;2023-03-30T21:04:27;11.50;99.90
15949;DHT22;14848;50.954;6.642;2023-03-30T21:06:53;11.50;99.90
15949;DHT22;14848;50.954;6.642;2023-03-30T21:09:19;11.50;99.90
15949;DHT22;14848;50.954;6.642;2023-03-30T21:11:45;11.50;99.90
15949;DHT22;14848;50.954;6.642;2023-03-30T21:14:11;11.50;99.90
15949;DHT22;14848;50.954;6.642;2023-03-30T21:16:37;11.50;99.90
15949;DHT22;14848;50.954;6.642;2023-03-30T21:19:04;11.50;99.90
15949;DHT22;14848;50.954;6.642;2023-03-30T21:21:29;11.50;99.90
15949;DHT22;14848;50.954;6.642;2023-03-30T21:23:58;11.40;99.90
15949;DHT22;14848;50.954;6.642;2023-03-30T21:26:25;11.40;99.90
15949;DHT22;14848;50.954;6.642;2023-03-30T21:28:50;11.40;99.90
15949;DHT22;14848;50.954;6.642;2023-03-30T21:31:16;11.40;99.90
15949;DHT22;14848;50.954;6.642;2023-03-30T21:33:42;11.40;99.90
15949;DHT22;14848;50.954;6.642;2023-03-30T21:36:08;11.40;99.90